sensor_id;sensor_type;location;lat;lon;timestamp;pressure;altitude;pressure_sealevel;temperature;humidity
46129;BME280;31860;45.186;5.790;2022-09-09T00:04:41;98974.41;;;23.26;53.31
46129;BME280;31860;45.186;5.790;2022-09-09T00:07:15;98971.66;;;23.28;53.02
46129;BME280;31860;45.186;5.790;2022-09-09T00:09:48;98970.66;;;23.30;52.52
46129;BME280;31860;45.186;5.790;2022-09-09T00:12:17;98975.91;;;23.32;52.34
46129;BME280;31860;45.186;5.790;2022-09-09T00:14:54;98980.13;;;23.36;51.89
46129;BME280;31860;45.186;5.790;2022-09-09T00:17:35;98984.31;;;23.40;51.66
46129;BME280;31860;45.186;5.790;2022-09-09T00:21:12;98992.16;;;23.43;51.69
46129;BME280;31860;45.186;5.790;2022-09-09T00:23:20;98988.47;;;23.45;52.25
46129;BME280;31860;45.186;5.790;2022-09-09T00:28:27;98989.22;;;23.47;52.16
46129;BME280;31860;45.186;5.790;2022-09-09T00:30:55;98990.88;;;23.50;51.89
46129;BME280;31860;45.186;5.790;2022-09-09T00:33:23;98991.66;;;23.52;51.94
46129;BME280;31860;45.186;5.790;2022-09-09T00:35:52;98988.91;;;23.53;51.88
46129;BME280;31860;45.186;5.790;2022-09-09T00:38:34;98985.28;;;23.55;52.10
46129;BME280;31860;45.186;5.790;2022-09-09T00:41:21;98979.88;;;23.56;52.46
46129;BME280;31860;45.186;5.790;2022-09-09T00:44:00;98988.81;;;23.55;52.19
46129;BME280;31860;45.186;5.790;2022-09-09T00:46:56;98991.84;;;23.49;52.48
46129;BME280;31860;45.186;5.790;2022-09-09T00:49:32;98992.16;;;23.43;52.12
46129;BME280;31860;45.186;5.790;2022-09-09T00:57:32;98986.47;;;23.33;52.59
46129;BME280;31860;45.186;5.790;2022-09-09T01:00:20;98983.13;;;23.30;52.64
46129;BME280;31860;45.186;5.790;2022-09-09T01:03:19;98986.66;;;23.30;52.47
46129;BME280;31860;45.186;5.790;2022-09-09T01:08:53;98987.66;;;23.28;52.73
46129;BME280;31860;45.186;5.790;2022-09-09T01:11:25;98986.94;;;23.24;52.62
46129;BME280;31860;45.186;5.790;2022-09-09T01:16:54;98995.97;;;23.22;53.21
46129;BME280;31860;45.186;5.790;2022-09-09T01:19:37;98988.06;;;23.20;53.92
46129;BME280;31860;45.186;5.790;2022-09-09T01:25:24;98992.53;;;23.20;54.67
46129;BME280;31860;45.186;5.790;2022-09-09T01:27:57;98987.28;;;23.18;54.41
46129;BME280;31860;45.186;5.790;2022-09-09T01:30:24;98988.97;;;23.19;54.58
46129;BME280;31860;45.186;5.790;2022-09-09T01:32:55;98991.75;;;23.18;55.30
46129;BME280;31860;45.186;5.790;2022-09-09T01:35:35;98990.88;;;23.17;55.58
46129;BME280;31860;45.186;5.790;2022-09-09T01:38:03;98988.28;;;23.16;55.24
46129;BME280;31860;45.186;5.790;2022-09-09T01:40:28;98997.25;;;23.15;55.20
46129;BME280;31860;45.186;5.790;2022-09-09T01:42:54;98991.13;;;23.13;55.61
46129;BME280;31860;45.186;5.790;2022-09-09T01:45:21;98987.59;;;23.12;55.79
46129;BME280;31860;45.186;5.790;2022-09-09T01:47:47;98981.50;;;23.10;55.67
46129;BME280;31860;45.186;5.790;2022-09-09T01:50:14;98984.34;;;23.07;55.83
46129;BME280;31860;45.186;5.790;2022-09-09T01:52:40;98987.16;;;23.04;55.99
46129;BME280;31860;45.186;5.790;2022-09-09T01:55:08;98991.78;;;23.01;55.62
46129;BME280;31860;45.186;5.790;2022-09-09T02:00:11;98999.16;;;22.96;55.76
46129;BME280;31860;45.186;5.790;2022-09-09T02:07:42;99008.50;;;22.87;56.50
46129;BME280;31860;45.186;5.790;2022-09-09T02:10:23;99011.09;;;22.89;57.14
46129;BME280;31860;45.186;5.790;2022-09-09T02:12:57;99008.75;;;22.83;56.33
46129;BME280;31860;45.186;5.790;2022-09-09T02:15:32;99007.09;;;22.80;56.02
46129;BME280;31860;45.186;5.790;2022-09-09T02:18:01;99003.75;;;22.77;56.20
46129;BME280;31860;45.186;5.790;2022-09-09T02:20:32;99011.91;;;22.74;55.99
46129;BME280;31860;45.186;5.790;2022-09-09T02:22:59;99002.34;;;22.70;56.17
46129;BME280;31860;45.186;5.790;2022-09-09T02:25:28;99005.16;;;22.67;55.90
46129;BME280;31860;45.186;5.790;2022-09-09T02:27:57;99002.56;;;22.65;56.02
46129;BME280;31860;45.186;5.790;2022-09-09T02:30:28;99003.66;;;22.61;56.15
46129;BME280;31860;45.186;5.790;2022-09-09T02:32:58;99008.16;;;22.61;56.07
46129;BME280;31860;45.186;5.790;2022-09-09T02:35:25;99009.16;;;22.58;55.94
46129;BME280;31860;45.186;5.790;2022-09-09T02:37:58;99004.91;;;22.54;55.76
46129;BME280;31860;45.186;5.790;2022-09-09T02:40:25;99003.94;;;22.56;55.76
46129;BME280;31860;45.186;5.790;2022-09-09T02:42:50;98991.50;;;22.55;55.66
46129;BME280;31860;45.186;5.790;2022-09-09T02:45:20;98988.00;;;22.55;55.90
46129;BME280;31860;45.186;5.790;2022-09-09T02:47:55;98989.78;;;22.54;55.44
46129;BME280;31860;45.186;5.790;2022-09-09T02:50:34;98996.03;;;22.53;55.40
46129;BME280;31860;45.186;5.790;2022-09-09T02:53:07;98994.56;;;22.48;55.19
46129;BME280;31860;45.186;5.790;2022-09-09T02:58:07;98999.03;;;22.47;55.28
46129;BME280;31860;45.186;5.790;2022-09-09T03:00:35;98996.53;;;22.44;55.39
46129;BME280;31860;45.186;5.790;2022-09-09T03:03:03;98999.34;;;22.41;55.56
46129;BME280;31860;45.186;5.790;2022-09-09T03:05:28;98996.81;;;22.38;55.46
46129;BME280;31860;45.186;5.790;2022-09-09T03:07:53;99006.78;;;22.35;55.59
46129;BME280;31860;45.186;5.790;2022-09-09T03:10:19;98998.00;;;22.33;55.49
46129;BME280;31860;45.186;5.790;2022-09-09T03:12:44;99003.41;;;22.31;55.80
46129;BME280;31860;45.186;5.790;2022-09-09T03:15:09;98999.09;;;22.29;55.70
46129;BME280;31860;45.186;5.790;2022-09-09T03:17:35;99009.97;;;22.24;55.93
46129;BME280;31860;45.186;5.790;2022-09-09T03:20:03;99005.59;;;22.23;55.91
46129;BME280;31860;45.186;5.790;2022-09-09T03:22:29;99013.94;;;22.16;56.07
46129;BME280;31860;45.186;5.790;2022-09-09T03:24:54;99010.59;;;22.12;56.08
46129;BME280;31860;45.186;5.790;2022-09-09T03:27:20;99004.47;;;22.10;56.17
46129;BME280;31860;45.186;5.790;2022-09-09T03:29:46;99014.31;;;22.08;56.07
46129;BME280;31860;45.186;5.790;2022-09-09T03:32:12;99018.88;;;22.06;55.99
46129;BME280;31860;45.186;5.790;2022-09-09T03:34:37;99017.31;;;22.02;56.02
46129;BME280;31860;45.186;5.790;2022-09-09T03:37:05;99019.25;;;21.99;56.23
46129;BME280;31860;45.186;5.790;2022-09-09T03:39:31;99016.81;;;21.94;56.05
46129;BME280;31860;45.186;5.790;2022-09-09T03:41:56;99020.78;;;21.86;56.35
46129;BME280;31860;45.186;5.790;2022-09-09T03:44:22;99023.66;;;21.81;56.04
46129;BME280;31860;45.186;5.790;2022-09-09T03:46:47;99024.72;;;21.77;56.33
46129;BME280;31860;45.186;5.790;2022-09-09T03:49:13;99031.97;;;21.74;56.53
46129;BME280;31860;45.186;5.790;2022-09-09T03:51:38;99030.41;;;21.69;56.37
46129;BME280;31860;45.186;5.790;2022-09-09T03:54:04;99024.91;;;21.73;56.23
46129;BME280;31860;45.186;5.790;2022-09-09T03:56:34;99025.78;;;21.73;56.16
46129;BME280;31860;45.186;5.790;2022-09-09T03:58:59;99030.16;;;21.74;56.21
46129;BME280;31860;45.186;5.790;2022-09-09T04:01:25;99039.88;;;21.75;56.13
46129;BME280;31860;45.186;5.790;2022-09-09T04:03:50;99039.88;;;21.75;55.80
46129;BME280;31860;45.186;5.790;2022-09-09T04:06:15;99041.59;;;21.76;55.98
46129;BME280;31860;45.186;5.790;2022-09-09T04:08:42;99037.31;;;21.74;56.01
46129;BME280;31860;45.186;5.790;2022-09-09T04:11:08;99037.50;;;21.69;56.15
46129;BME280;31860;45.186;5.790;2022-09-09T04:13:34;99035.81;;;21.68;56.08
46129;BME280;31860;45.186;5.790;2022-09-09T04:16:01;99040.25;;;21.67;56.16
46129;BME280;31860;45.186;5.790;2022-09-09T04:18:27;99038.47;;;21.68;56.46
46129;BME280;31860;45.186;5.790;2022-09-09T04:20:54;99038.59;;;21.65;56.97
46129;BME280;31860;45.186;5.790;2022-09-09T04:23:22;99036.88;;;21.64;57.15
46129;BME280;31860;45.186;5.790;2022-09-09T04:25:51;99038.81;;;21.60;57.37
46129;BME280;31860;45.186;5.790;2022-09-09T04:28:18;99044.13;;;21.60;57.17
46129;BME280;31860;45.186;5.790;2022-09-09T04:30:45;99038.09;;;21.57;57.27
46129;BME280;31860;45.186;5.790;2022-09-09T04:33:11;99038.31;;;21.52;57.16
46129;BME280;31860;45.186;5.790;2022-09-09T04:35:38;99048.22;;;21.49;57.10
46129;BME280;31860;45.186;5.790;2022-09-09T04:38:05;99045.56;;;21.49;57.29
46129;BME280;31860;45.186;5.790;2022-09-09T04:40:32;99048.22;;;21.49;57.39
46129;BME280;31860;45.186;5.790;2022-09-09T04:42:59;99043.03;;;21.46;57.29
46129;BME280;31860;45.186;5.790;2022-09-09T04:45:24;99047.50;;;21.45;57.07
46129;BME280;31860;45.186;5.790;2022-09-09T04:47:51;99045.03;;;21.41;57.15
46129;BME280;31860;45.186;5.790;2022-09-09T04:50:17;99049.50;;;21.40;57.36
46129;BME280;31860;45.186;5.790;2022-09-09T04:52:44;99049.72;;;21.36;57.14
46129;BME280;31860;45.186;5.790;2022-09-09T04:55:09;99054.25;;;21.34;57.46
46129;BME280;31860;45.186;5.790;2022-09-09T04:57:35;99051.59;;;21.34;57.16
46129;BME280;31860;45.186;5.790;2022-09-09T05:00:00;99048.25;;;21.29;57.28
46129;BME280;31860;45.186;5.790;2022-09-09T05:02:27;99051.94;;;21.26;57.28
46129;BME280;31860;45.186;5.790;2022-09-09T05:04:52;99050.41;;;21.21;57.54
46129;BME280;31860;45.186;5.790;2022-09-09T05:07:18;99058.31;;;21.22;57.51
46129;BME280;31860;45.186;5.790;2022-09-09T05:09:44;99063.69;;;21.21;57.29
46129;BME280;31860;45.186;5.790;2022-09-09T05:12:10;99059.53;;;21.15;57.82
46129;BME280;31860;45.186;5.790;2022-09-09T05:14:36;99063.03;;;21.16;57.48
46129;BME280;31860;45.186;5.790;2022-09-09T05:17:02;99060.44;;;21.14;57.41
46129;BME280;31860;45.186;5.790;2022-09-09T05:19:28;99061.25;;;21.16;57.56
46129;BME280;31860;45.186;5.790;2022-09-09T05:21:53;99073.66;;;21.16;57.47
46129;BME280;31860;45.186;5.790;2022-09-09T05:24:18;99077.53;;;21.09;57.84
46129;BME280;31860;45.186;5.790;2022-09-09T05:26:44;99090.72;;;21.10;57.61
46129;BME280;31860;45.186;5.790;2022-09-09T05:29:09;99081.84;;;21.11;57.78
46129;BME280;31860;45.186;5.790;2022-09-09T05:31:35;99076.59;;;21.10;57.33
46129;BME280;31860;45.186;5.790;2022-09-09T05:34:01;99084.56;;;21.10;57.49
46129;BME280;31860;45.186;5.790;2022-09-09T05:36:27;99081.91;;;21.10;57.50
46129;BME280;31860;45.186;5.790;2022-09-09T05:38:52;99083.72;;;21.09;57.29
46129;BME280;31860;45.186;5.790;2022-09-09T05:41:19;99094.25;;;21.11;57.62
46129;BME280;31860;45.186;5.790;2022-09-09T05:43:46;99091.59;;;21.11;57.27
46129;BME280;31860;45.186;5.790;2022-09-09T05:46:18;99094.09;;;21.14;57.73
46129;BME280;31860;45.186;5.790;2022-09-09T05:48:45;99100.22;;;21.16;57.50
46129;BME280;31860;45.186;5.790;2022-09-09T05:51:13;99094.00;;;21.17;57.22
46129;BME280;31860;45.186;5.790;2022-09-09T05:53:41;99101.03;;;21.18;57.49
46129;BME280;31860;45.186;5.790;2022-09-09T05:58:33;99095.84;;;21.15;57.30
46129;BME280;31860;45.186;5.790;2022-09-09T06:01:05;99105.63;;;21.14;57.67
46129;BME280;31860;45.186;5.790;2022-09-09T06:03:36;99106.56;;;21.13;57.32
46129;BME280;31860;45.186;5.790;2022-09-09T06:06:04;99099.44;;;21.14;57.65
46129;BME280;31860;45.186;5.790;2022-09-09T06:08:32;99102.75;;;21.19;57.38
46129;BME280;31860;45.186;5.790;2022-09-09T06:11:05;99103.16;;;21.30;57.70
46129;BME280;31860;45.186;5.790;2022-09-09T06:13:31;99105.25;;;21.42;57.30
46129;BME280;31860;45.186;5.790;2022-09-09T06:15:57;99109.13;;;21.53;57.17
46129;BME280;31860;45.186;5.790;2022-09-09T06:18:24;99115.22;;;21.57;56.97
46129;BME280;31860;45.186;5.790;2022-09-09T06:21:20;99115.06;;;21.60;57.31
46129;BME280;31860;45.186;5.790;2022-09-09T06:23:46;99123.19;;;21.57;56.86
46129;BME280;31860;45.186;5.790;2022-09-09T06:26:15;99117.63;;;21.61;57.04
46129;BME280;31860;45.186;5.790;2022-09-09T06:28:42;99114.19;;;21.59;56.71
46129;BME280;31860;45.186;5.790;2022-09-09T06:31:10;99110.88;;;21.54;57.07
46129;BME280;31860;45.186;5.790;2022-09-09T06:33:38;99111.00;;;21.51;56.93
46129;BME280;31860;45.186;5.790;2022-09-09T06:36:10;99096.50;;;21.58;57.25
46129;BME280;31860;45.186;5.790;2022-09-09T06:38:36;99095.13;;;21.68;57.06
46129;BME280;31860;45.186;5.790;2022-09-09T06:41:02;99106.03;;;21.83;56.95
46129;BME280;31860;45.186;5.790;2022-09-09T06:43:28;99107.28;;;21.94;56.51
46129;BME280;31860;45.186;5.790;2022-09-09T06:46:15;99109.19;;;22.09;56.01
46129;BME280;31860;45.186;5.790;2022-09-09T06:48:43;99110.09;;;22.27;56.14
46129;BME280;31860;45.186;5.790;2022-09-09T06:51:15;99126.09;;;22.44;55.82
46129;BME280;31860;45.186;5.790;2022-09-09T06:53:42;99120.84;;;22.61;55.33
46129;BME280;31860;45.186;5.790;2022-09-09T06:58:34;99120.66;;;22.83;54.59
46129;BME280;31860;45.186;5.790;2022-09-09T07:01:05;99121.03;;;22.92;54.37
46129;BME280;31860;45.186;5.790;2022-09-09T07:03:31;99122.13;;;23.05;53.96
46129;BME280;31860;45.186;5.790;2022-09-09T07:05:56;99114.63;;;23.13;53.79
46129;BME280;31860;45.186;5.790;2022-09-09T07:08:23;99115.84;;;23.23;53.18
46129;BME280;31860;45.186;5.790;2022-09-09T07:10:49;99117.22;;;23.32;52.92
46129;BME280;31860;45.186;5.790;2022-09-09T07:13:14;99105.72;;;23.47;53.13
46129;BME280;31860;45.186;5.790;2022-09-09T07:15:41;99097.81;;;23.61;52.83
46129;BME280;31860;45.186;5.790;2022-09-09T07:18:07;99092.53;;;23.77;52.52
46129;BME280;31860;45.186;5.790;2022-09-09T07:20:35;99099.88;;;23.89;52.25
46129;BME280;31860;45.186;5.790;2022-09-09T07:23:00;99099.44;;;23.96;52.02
46129;BME280;31860;45.186;5.790;2022-09-09T07:25:26;99105.31;;;24.03;51.69
46129;BME280;31860;45.186;5.790;2022-09-09T07:27:54;99103.25;;;24.08;51.49
46129;BME280;31860;45.186;5.790;2022-09-09T07:30:20;99106.53;;;24.13;51.38
46129;BME280;31860;45.186;5.790;2022-09-09T07:32:45;99107.13;;;24.18;51.02
46129;BME280;31860;45.186;5.790;2022-09-09T07:35:10;99102.56;;;24.20;50.64
46129;BME280;31860;45.186;5.790;2022-09-09T07:37:37;99099.81;;;24.21;50.39
46129;BME280;31860;45.186;5.790;2022-09-09T07:40:03;99102.31;;;24.24;50.40
46129;BME280;31860;45.186;5.790;2022-09-09T07:42:29;99103.78;;;24.30;50.05
46129;BME280;31860;45.186;5.790;2022-09-09T07:44:55;99108.00;;;24.34;50.02
46129;BME280;31860;45.186;5.790;2022-09-09T07:47:20;99115.91;;;24.35;49.80
46129;BME280;31860;45.186;5.790;2022-09-09T07:49:46;99121.84;;;24.40;49.68
46129;BME280;31860;45.186;5.790;2022-09-09T07:52:12;99109.84;;;24.48;49.88
46129;BME280;31860;45.186;5.790;2022-09-09T07:54:37;99115.81;;;24.53;49.60
46129;BME280;31860;45.186;5.790;2022-09-09T07:57:03;99108.47;;;24.56;49.20
46129;BME280;31860;45.186;5.790;2022-09-09T07:59:29;99100.09;;;24.62;49.19
46129;BME280;31860;45.186;5.790;2022-09-09T08:01:55;99103.47;;;24.66;49.00
46129;BME280;31860;45.186;5.790;2022-09-09T08:04:22;99105.94;;;24.69;48.67
46129;BME280;31860;45.186;5.790;2022-09-09T08:06:53;99110.09;;;24.74;48.10
46129;BME280;31860;45.186;5.790;2022-09-09T08:09:19;99109.66;;;24.82;48.28
46129;BME280;31860;45.186;5.790;2022-09-09T08:11:46;99102.22;;;24.87;48.27
46129;BME280;31860;45.186;5.790;2022-09-09T08:14:12;99102.72;;;24.93;47.88
46129;BME280;31860;45.186;5.790;2022-09-09T08:16:40;99096.59;;;24.91;47.85
46129;BME280;31860;45.186;5.790;2022-09-09T08:19:06;99090.31;;;24.92;47.80
46129;BME280;31860;45.186;5.790;2022-09-09T08:21:37;99084.56;;;24.98;47.63
46129;BME280;31860;45.186;5.790;2022-09-09T08:24:04;99089.47;;;25.06;47.57
46129;BME280;31860;45.186;5.790;2022-09-09T08:26:33;99081.06;;;25.12;47.43
46129;BME280;31860;45.186;5.790;2022-09-09T08:29:01;99093.50;;;25.13;47.42
46129;BME280;31860;45.186;5.790;2022-09-09T08:31:33;99090.84;;;25.13;46.77
46129;BME280;31860;45.186;5.790;2022-09-09T08:33:59;99096.75;;;25.18;47.49
46129;BME280;31860;45.186;5.790;2022-09-09T08:36:27;99102.66;;;25.23;47.06
46129;BME280;31860;45.186;5.790;2022-09-09T08:38:54;99101.44;;;25.28;47.08
46129;BME280;31860;45.186;5.790;2022-09-09T08:55:57;99115.09;;;25.24;45.09
46129;BME280;31860;45.186;5.790;2022-09-09T08:58:28;99110.91;;;25.20;45.96
46129;BME280;31860;45.186;5.790;2022-09-09T09:11:21;99114.88;;;25.43;46.31
46129;BME280;31860;45.186;5.790;2022-09-09T09:14:01;99111.22;;;25.44;45.43
46129;BME280;31860;45.186;5.790;2022-09-09T09:16:44;99115.38;;;25.49;44.40
46129;BME280;31860;45.186;5.790;2022-09-09T09:19:15;99118.88;;;25.50;45.00
46129;BME280;31860;45.186;5.790;2022-09-09T09:21:44;99116.81;;;25.55;44.83
46129;BME280;31860;45.186;5.790;2022-09-09T09:27:13;99108.97;;;25.66;44.47
46129;BME280;31860;45.186;5.790;2022-09-09T09:29:40;99105.91;;;25.72;44.80
46129;BME280;31860;45.186;5.790;2022-09-09T09:32:11;99102.75;;;25.79;44.74
46129;BME280;31860;45.186;5.790;2022-09-09T09:34:39;99099.09;;;25.80;44.00
46129;BME280;31860;45.186;5.790;2022-09-09T09:37:16;99100.44;;;25.87;43.66
46129;BME280;31860;45.186;5.790;2022-09-09T09:39:45;99104.47;;;25.94;43.70
46129;BME280;31860;45.186;5.790;2022-09-09T09:42:16;99096.31;;;25.96;42.66
46129;BME280;31860;45.186;5.790;2022-09-09T09:44:42;99103.22;;;26.00;43.02
46129;BME280;31860;45.186;5.790;2022-09-09T09:49:38;99088.28;;;26.10;42.88
46129;BME280;31860;45.186;5.790;2022-09-09T09:52:06;99092.69;;;26.11;42.15
46129;BME280;31860;45.186;5.790;2022-09-09T09:54:42;99078.81;;;26.18;40.63
46129;BME280;31860;45.186;5.790;2022-09-09T09:57:09;99083.75;;;26.24;41.27
46129;BME280;31860;45.186;5.790;2022-09-09T09:59:36;99081.41;;;26.33;40.58
46129;BME280;31860;45.186;5.790;2022-09-09T10:02:24;99081.78;;;26.41;39.55
46129;BME280;31860;45.186;5.790;2022-09-09T10:05:22;99083.31;;;26.45;38.82
46129;BME280;31860;45.186;5.790;2022-09-09T10:08:12;99078.59;;;26.48;38.88
46129;BME280;31860;45.186;5.790;2022-09-09T10:26:56;99066.31;;;26.58;38.42
46129;BME280;31860;45.186;5.790;2022-09-09T10:29:53;99065.34;;;26.59;37.94
46129;BME280;31860;45.186;5.790;2022-09-09T10:32:35;99066.97;;;26.62;38.20
46129;BME280;31860;45.186;5.790;2022-09-09T10:35:09;99063.13;;;26.66;38.51
46129;BME280;31860;45.186;5.790;2022-09-09T10:42:44;99054.59;;;26.73;39.19
46129;BME280;31860;45.186;5.790;2022-09-09T10:45:33;99053.50;;;26.76;37.36
46129;BME280;31860;45.186;5.790;2022-09-09T10:57:08;99048.47;;;26.84;38.06
46129;BME280;31860;45.186;5.790;2022-09-09T10:59:39;99046.44;;;26.87;38.85
46129;BME280;31860;45.186;5.790;2022-09-09T11:02:13;99046.25;;;26.90;38.07
46129;BME280;31860;45.186;5.790;2022-09-09T11:04:51;99042.47;;;26.93;38.27
46129;BME280;31860;45.186;5.790;2022-09-09T11:07:32;99046.91;;;26.94;37.92
46129;BME280;31860;45.186;5.790;2022-09-09T11:10:03;99049.47;;;26.95;37.90
46129;BME280;31860;45.186;5.790;2022-09-09T11:12:35;99036.94;;;26.96;37.75
46129;BME280;31860;45.186;5.790;2022-09-09T11:15:15;99050.09;;;26.99;37.39
46129;BME280;31860;45.186;5.790;2022-09-09T11:17:49;99041.88;;;27.02;37.70
46129;BME280;31860;45.186;5.790;2022-09-09T11:20:15;99033.72;;;27.03;38.02
46129;BME280;31860;45.186;5.790;2022-09-09T11:23:01;99033.50;;;27.06;37.69
46129;BME280;31860;45.186;5.790;2022-09-09T11:25:39;99035.09;;;27.09;38.08
46129;BME280;31860;45.186;5.790;2022-09-09T11:31:27;99023.28;;;27.11;38.02
46129;BME280;31860;45.186;5.790;2022-09-09T11:37:06;99029.09;;;27.18;37.21
46129;BME280;31860;45.186;5.790;2022-09-09T11:40:01;99032.53;;;27.20;36.90
46129;BME280;31860;45.186;5.790;2022-09-09T11:42:33;99028.88;;;27.21;37.88
46129;BME280;31860;45.186;5.790;2022-09-09T11:45:09;99023.41;;;27.23;36.11
46129;BME280;31860;45.186;5.790;2022-09-09T11:47:36;99022.31;;;27.25;37.30
46129;BME280;31860;45.186;5.790;2022-09-09T11:52:44;99034.56;;;27.29;37.09
46129;BME280;31860;45.186;5.790;2022-09-09T11:55:35;99030.19;;;27.28;34.96
46129;BME280;31860;45.186;5.790;2022-09-09T12:00:39;99031.00;;;27.29;35.75
46129;BME280;31860;45.186;5.790;2022-09-09T12:08:55;99031.59;;;27.34;36.00
46129;BME280;31860;45.186;5.790;2022-09-09T12:11:28;99034.06;;;27.37;35.99
46129;BME280;31860;45.186;5.790;2022-09-09T12:13:59;99035.69;;;27.39;35.22
46129;BME280;31860;45.186;5.790;2022-09-09T12:16:36;99033.75;;;27.41;34.69
46129;BME280;31860;45.186;5.790;2022-09-09T12:19:23;99030.06;;;27.42;33.80
46129;BME280;31860;45.186;5.790;2022-09-09T12:21:57;99029.13;;;27.43;34.83
46129;BME280;31860;45.186;5.790;2022-09-09T12:27:00;99022.66;;;27.46;34.64
46129;BME280;31860;45.186;5.790;2022-09-09T12:29:44;99027.19;;;27.45;33.22
46129;BME280;31860;45.186;5.790;2022-09-09T12:32:28;99030.72;;;27.46;33.99
46129;BME280;31860;45.186;5.790;2022-09-09T12:37:49;99017.22;;;27.47;33.99
46129;BME280;31860;45.186;5.790;2022-09-09T12:40:25;99015.25;;;27.49;35.21
46129;BME280;31860;45.186;5.790;2022-09-09T12:42:51;99015.91;;;27.53;35.16
46129;BME280;31860;45.186;5.790;2022-09-09T12:45:22;99013.09;;;27.54;34.36
46129;BME280;31860;45.186;5.790;2022-09-09T12:48:28;98999.69;;;27.54;33.68
46129;BME280;31860;45.186;5.790;2022-09-09T12:50:53;99011.16;;;27.56;33.92
46129;BME280;31860;45.186;5.790;2022-09-09T12:56:03;99000.19;;;27.59;34.74
46129;BME280;31860;45.186;5.790;2022-09-09T12:58:30;98999.25;;;27.60;34.61
46129;BME280;31860;45.186;5.790;2022-09-09T13:01:01;99000.00;;;27.62;34.96
46129;BME280;31860;45.186;5.790;2022-09-09T13:03:28;99000.63;;;27.66;35.20
46129;BME280;31860;45.186;5.790;2022-09-09T13:05:58;98999.66;;;27.67;33.93
46129;BME280;31860;45.186;5.790;2022-09-09T13:08:25;98996.84;;;27.68;34.68
46129;BME280;31860;45.186;5.790;2022-09-09T13:11:04;98997.72;;;27.69;33.68
46129;BME280;31860;45.186;5.790;2022-09-09T13:13:37;98984.28;;;27.69;34.06
46129;BME280;31860;45.186;5.790;2022-09-09T13:16:05;98986.84;;;27.70;34.17
46129;BME280;31860;45.186;5.790;2022-09-09T13:18:35;98992.22;;;27.70;33.69
46129;BME280;31860;45.186;5.790;2022-09-09T13:21:02;99004.69;;;27.71;33.84
46129;BME280;31860;45.186;5.790;2022-09-09T13:23:33;98993.94;;;27.71;33.39
46129;BME280;31860;45.186;5.790;2022-09-09T13:26:19;98994.69;;;27.73;33.27
46129;BME280;31860;45.186;5.790;2022-09-09T13:28:48;98993.84;;;27.73;33.70
46129;BME280;31860;45.186;5.790;2022-09-09T13:31:38;98995.78;;;27.71;32.16
46129;BME280;31860;45.186;5.790;2022-09-09T13:34:25;98985.91;;;27.71;32.57
46129;BME280;31860;45.186;5.790;2022-09-09T13:37:02;98996.63;;;27.71;32.72
46129;BME280;31860;45.186;5.790;2022-09-09T13:39:33;98991.25;;;27.71;33.13
46129;BME280;31860;45.186;5.790;2022-09-09T13:41:58;98997.47;;;27.72;33.87
46129;BME280;31860;45.186;5.790;2022-09-09T13:44:29;98989.34;;;27.73;33.28
46129;BME280;31860;45.186;5.790;2022-09-09T13:49:39;98988.34;;;27.74;33.99
46129;BME280;31860;45.186;5.790;2022-09-09T13:52:18;98991.91;;;27.75;33.71
46129;BME280;31860;45.186;5.790;2022-09-09T13:54:48;98982.97;;;27.74;33.68
46129;BME280;31860;45.186;5.790;2022-09-09T13:59:43;98985.66;;;27.74;33.11
46129;BME280;31860;45.186;5.790;2022-09-09T14:02:09;98989.22;;;27.75;33.11
46129;BME280;31860;45.186;5.790;2022-09-09T14:04:34;98990.16;;;27.74;33.10
46129;BME280;31860;45.186;5.790;2022-09-09T14:07:00;98987.47;;;27.74;33.41
46129;BME280;31860;45.186;5.790;2022-09-09T14:09:27;98991.16;;;27.73;32.89
46129;BME280;31860;45.186;5.790;2022-09-09T14:11:52;98994.69;;;27.73;33.48
46129;BME280;31860;45.186;5.790;2022-09-09T14:14:17;99001.03;;;27.72;33.00
46129;BME280;31860;45.186;5.790;2022-09-09T14:16:43;98992.97;;;27.72;32.97
46129;BME280;31860;45.186;5.790;2022-09-09T14:19:08;98996.53;;;27.73;33.20
46129;BME280;31860;45.186;5.790;2022-09-09T14:21:34;98992.84;;;27.74;32.88
46129;BME280;31860;45.186;5.790;2022-09-09T14:24:00;98997.47;;;27.72;32.58
46129;BME280;31860;45.186;5.790;2022-09-09T14:26:25;98998.34;;;27.72;32.61
46129;BME280;31860;45.186;5.790;2022-09-09T14:28:51;98998.47;;;27.71;32.28
46129;BME280;31860;45.186;5.790;2022-09-09T14:31:17;98994.91;;;27.70;32.84
46129;BME280;31860;45.186;5.790;2022-09-09T14:33:43;98999.44;;;27.70;33.25
46129;BME280;31860;45.186;5.790;2022-09-09T14:36:09;98999.53;;;27.68;32.46
46129;BME280;31860;45.186;5.790;2022-09-09T14:38:37;98999.53;;;27.68;32.15
46129;BME280;31860;45.186;5.790;2022-09-09T14:41:07;99007.59;;;27.68;32.35
46129;BME280;31860;45.186;5.790;2022-09-09T14:43:34;99005.88;;;27.67;32.49
46129;BME280;31860;45.186;5.790;2022-09-09T14:46:13;99006.84;;;27.66;30.37
46129;BME280;31860;45.186;5.790;2022-09-09T14:48:39;99006.09;;;27.64;31.31
46129;BME280;31860;45.186;5.790;2022-09-09T14:51:11;99002.69;;;27.62;31.17
46129;BME280;31860;45.186;5.790;2022-09-09T14:53:38;98996.44;;;27.62;31.55
46129;BME280;31860;45.186;5.790;2022-09-09T14:56:14;99000.94;;;27.61;30.92
46129;BME280;31860;45.186;5.790;2022-09-09T14:58:40;99001.94;;;27.60;31.53
46129;BME280;31860;45.186;5.790;2022-09-09T15:01:08;99005.81;;;27.56;31.21
46129;BME280;31860;45.186;5.790;2022-09-09T15:03:36;98998.06;;;27.52;31.06
46129;BME280;31860;45.186;5.790;2022-09-09T15:06:12;99007.19;;;27.49;31.17
46129;BME280;31860;45.186;5.790;2022-09-09T15:08:40;98994.75;;;27.48;30.77
46129;BME280;31860;45.186;5.790;2022-09-09T15:11:06;98997.66;;;27.45;30.77
46129;BME280;31860;45.186;5.790;2022-09-09T15:13:33;98997.66;;;27.45;31.42
46129;BME280;31860;45.186;5.790;2022-09-09T15:18:34;98993.25;;;27.44;31.41
46129;BME280;31860;45.186;5.790;2022-09-09T15:21:04;98993.25;;;27.44;31.47
46129;BME280;31860;45.186;5.790;2022-09-09T15:23:34;98997.75;;;27.44;30.44
46129;BME280;31860;45.186;5.790;2022-09-09T15:25:59;98995.94;;;27.44;31.14